createdAt,value
2022-11-09T00:01:50.093Z,31.07
2022-11-09T00:06:54.213Z,37.00
2022-11-09T00:11:57.552Z,35.37
2022-11-09T00:17:01.156Z,35.50
2022-11-09T00:22:04.373Z,33.93
2022-11-09T00:27:07.609Z,35.20
2022-11-09T05:31:09.887Z,38.47
2022-11-09T05:36:12.938Z,31.10
2022-11-09T05:41:16.090Z,39.57
2022-11-09T05:46:19.671Z,69.70
2022-11-09T05:51:22.595Z,42.40
2022-11-09T05:56:25.554Z,39.20
2022-11-09T06:01:28.417Z,33.80
2022-11-09T06:06:31.479Z,37.83
2022-11-09T06:11:34.462Z,34.63
2022-11-09T06:16:37.854Z,29.90
2022-11-09T06:21:43.466Z,30.27
2022-11-09T06:26:46.463Z,33.37
2022-11-09T06:31:49.597Z,34.53
2022-11-09T06:36:52.799Z,34.53
2022-11-09T06:41:55.956Z,36.43
2022-11-09T06:46:59.003Z,41.73
2022-11-09T06:52:02.008Z,41.47
2022-11-09T06:57:05.248Z,46.77
2022-11-09T07:02:10.740Z,42.93
2022-11-09T07:07:13.711Z,46.23
2022-11-09T07:12:16.871Z,44.03
2022-11-09T07:17:19.907Z,44.03
2022-11-09T07:22:22.878Z,41.50
2022-11-09T07:27:28.393Z,46.20
2022-11-09T07:33:06.885Z,41.87
2022-11-09T07:38:01.985Z,37.80
2022-11-09T07:43:06.569Z,32.87
2022-11-09T07:48:11.309Z,35.50
2022-11-09T07:53:15.320Z,30.57
2022-11-09T07:58:18.263Z,30.07
2022-11-09T08:03:22.577Z,29.03
2022-11-09T08:08:25.962Z,32.00
2022-11-09T08:13:28.884Z,28.37
2022-11-09T08:18:31.899Z,27.47
2022-11-09T08:23:35.171Z,26.83
2022-11-09T08:28:38.445Z,27.10
2022-11-09T08:33:42.559Z,29.80
2022-11-09T08:38:46.435Z,23.60
2022-11-09T08:43:52.729Z,26.23
2022-11-09T08:49:02.188Z,27.73
2022-11-09T08:54:34.214Z,29.20
2022-11-09T08:59:46.356Z,26.73
2022-11-09T09:04:57.140Z,27.40
2022-11-09T09:10:10.286Z,23.27
2022-11-09T09:15:13.711Z,24.53
2022-11-09T09:20:18.139Z,23.73
2022-11-09T09:25:22.579Z,20.73
2022-11-09T09:30:25.545Z,21.80
2022-11-09T09:35:29.117Z,23.83
2022-11-09T09:40:43.775Z,20.00
2022-11-09T09:45:51.427Z,22.80
2022-11-09T09:50:57.350Z,22.83
2022-11-09T09:56:25.671Z,23.73
2022-11-09T10:01:43.191Z,24.27
2022-11-09T10:07:25.207Z,19.07
2022-11-09T10:12:49.831Z,17.30
2022-11-09T10:17:52.660Z,20.07
2022-11-09T10:23:13.993Z,25.27
2022-11-09T10:28:17.902Z,19.43
2022-11-09T10:33:22.641Z,18.77
2022-11-09T10:38:37.801Z,23.20
2022-11-09T10:43:40.809Z,15.00
2022-11-09T10:48:43.877Z,18.10
2022-11-09T10:53:46.693Z,19.27
2022-11-09T10:58:52.200Z,15.80
2022-11-09T11:03:57.547Z,14.60
2022-11-09T11:09:08.565Z,14.10
2022-11-09T11:14:28.800Z,16.53
2022-11-09T11:19:41.430Z,15.70
2022-11-09T11:25:01.696Z,17.00
2022-11-09T11:30:04.882Z,19.70
2022-11-09T11:35:38.910Z,18.63
2022-11-09T11:40:47.701Z,17.93
2022-11-09T11:46:04.814Z,20.77
2022-11-09T11:51:09.783Z,17.57
2022-11-09T11:56:23.593Z,17.17
2022-11-09T12:01:42.326Z,16.53
2022-11-09T12:06:51.392Z,18.60
2022-11-09T12:12:16.240Z,19.63
2022-11-09T12:17:59.373Z,18.00
2022-11-09T12:23:27.551Z,16.10
2022-11-09T12:28:56.071Z,15.50
2022-11-09T12:34:05.821Z,18.70
2022-11-09T12:39:22.838Z,16.13
2022-11-09T12:44:30.403Z,13.10
2022-11-09T12:49:43.344Z,16.10
2022-11-09T12:54:49.583Z,13.47
2022-11-09T12:59:54.863Z,16.50
2022-11-09T13:04:59.994Z,16.87
2022-11-09T13:10:03.732Z,14.03
2022-11-09T13:15:24.624Z,15.80
2022-11-09T13:26:00.025Z,17.20
2022-11-09T13:31:05.693Z,17.23
2022-11-09T13:36:08.623Z,14.63
2022-11-09T13:41:30.532Z,16.37
2022-11-09T13:46:38.450Z,18.13
2022-11-09T13:51:47.812Z,15.93
2022-11-09T13:56:53.180Z,18.67
2022-11-09T14:01:58.374Z,20.33
2022-11-09T14:07:30.898Z,16.13
2022-11-09T14:13:03.523Z,17.93
2022-11-09T14:18:12.604Z,19.20
2022-11-09T14:23:21.031Z,16.33
2022-11-09T14:28:30.391Z,17.20
2022-11-09T14:33:35.599Z,17.23
2022-11-09T14:38:46.932Z,14.97
2022-11-09T14:43:55.418Z,20.13
2022-11-09T14:49:02.340Z,18.93
2022-11-09T14:54:12.159Z,15.30
2022-11-09T14:59:24.860Z,18.57
2022-11-09T15:04:28.626Z,19.77
2022-11-09T15:09:43.765Z,18.33
2022-11-09T15:15:07.205Z,25.47
2022-11-09T15:20:12.827Z,19.73
2022-11-09T15:25:32.830Z,21.90
2022-11-09T15:30:35.673Z,19.57
2022-11-09T15:35:53.021Z,21.60
2022-11-09T15:40:56.112Z,25.30
2022-11-09T15:46:01.283Z,23.03
2022-11-09T15:51:04.299Z,23.70
2022-11-09T15:56:09.904Z,22.10
2022-11-09T16:01:15.816Z,25.57
2022-11-09T16:06:19.628Z,29.03
2022-11-09T16:11:25.405Z,24.13
2022-11-09T16:16:28.609Z,25.47
2022-11-09T16:21:31.524Z,28.47
2022-11-09T16:26:37.634Z,34.77
2022-11-09T16:31:51.358Z,25.67
2022-11-09T16:36:56.997Z,27.07
2022-11-09T16:42:06.761Z,31.23
2022-11-09T16:47:12.735Z,31.13
2022-11-09T16:52:16.318Z,28.10
2022-11-09T16:57:19.281Z,30.63
2022-11-09T17:02:23.970Z,33.63
2022-11-09T17:07:27.095Z,33.97
2022-11-09T17:12:31.431Z,34.40
2022-11-09T17:17:34.433Z,31.03
2022-11-09T17:22:41.638Z,36.33
2022-11-09T17:27:47.813Z,33.73
2022-11-09T17:32:51.179Z,33.63
2022-11-09T17:37:54.087Z,35.97
2022-11-09T17:42:57.272Z,35.00
2022-11-09T17:48:01.873Z,35.63
2022-11-09T17:53:04.948Z,33.33
2022-11-09T17:58:07.878Z,38.23
2022-11-09T18:03:13.647Z,40.13
2022-11-09T18:08:16.658Z,37.87
2022-11-09T18:13:19.786Z,42.67
2022-11-09T18:18:25.543Z,39.10
2022-11-09T18:23:28.435Z,36.93
2022-11-09T18:28:31.539Z,38.57
2022-11-09T18:33:34.982Z,39.40
2022-11-09T18:38:51.204Z,36.07
2022-11-09T18:43:54.614Z,38.37
2022-11-09T18:48:57.651Z,37.83
2022-11-09T18:54:00.672Z,37.83
2022-11-09T18:59:04.126Z,34.30
2022-11-09T19:04:07.088Z,38.77
2022-11-09T19:09:30.097Z,42.47
2022-11-09T19:14:36.378Z,45.00
2022-11-09T19:19:39.777Z,35.40
2022-11-09T19:24:42.863Z,37.87
2022-11-09T19:29:47.089Z,40.90
2022-11-09T19:34:50.197Z,39.40
2022-11-09T19:39:53.347Z,36.63
2022-11-09T19:44:58.003Z,43.23
2022-11-09T19:50:00.983Z,42.13
2022-11-09T19:55:05.410Z,42.17
2022-11-09T20:00:09.444Z,38.70
2022-11-09T20:05:15.921Z,35.47
2022-11-09T20:10:19.146Z,38.03
2022-11-09T20:15:25.282Z,39.40
2022-11-09T20:20:28.500Z,38.00
2022-11-09T20:25:31.773Z,36.77
2022-11-09T20:30:40.592Z,35.97
2022-11-09T20:35:53.860Z,40.67
2022-11-09T20:41:09.200Z,39.60
2022-11-09T20:46:24.057Z,33.90
2022-11-09T20:51:30.452Z,37.53
2022-11-09T20:56:42.584Z,36.87
2022-11-09T21:01:48.630Z,43.50
2022-11-09T21:06:51.972Z,40.63
2022-11-09T21:12:13.527Z,41.27
2022-11-09T21:17:24.521Z,35.93
2022-11-09T21:23:05.929Z,35.90
2022-11-09T21:28:34.547Z,33.90
2022-11-09T21:33:37.844Z,33.83
2022-11-09T21:38:41.608Z,33.13
2022-11-09T21:43:46.057Z,30.07
2022-11-09T21:48:52.179Z,30.77
2022-11-09T21:53:55.126Z,29.80
2022-11-09T21:58:58.210Z,30.73
2022-11-09T22:04:01.546Z,32.90
2022-11-09T22:09:12.148Z,27.90
2022-11-09T22:20:37.030Z,28.30
2022-11-09T22:25:45.217Z,29.07
2022-11-09T22:31:04.620Z,33.27
2022-11-09T22:36:09.780Z,29.40
2022-11-09T22:41:14.388Z,31.43
2022-11-09T22:46:18.111Z,23.97
2022-11-09T22:51:21.210Z,25.50
2022-11-09T22:56:24.217Z,31.43
2022-11-09T23:01:27.211Z,29.63
2022-11-09T23:06:30.328Z,29.97
2022-11-09T23:11:33.446Z,27.10
2022-11-09T23:16:36.408Z,30.10
2022-11-09T23:21:39.296Z,29.27
2022-11-09T23:26:42.183Z,28.57
2022-11-09T23:31:45.231Z,31.30
2022-11-09T23:36:48.234Z,28.97
2022-11-09T23:41:51.672Z,27.17
2022-11-09T23:46:54.584Z,32.10
2022-11-09T23:51:57.732Z,28.43
2022-11-09T23:57:00.737Z,27.57
